Airfield :
LOGIN :

Register | Disclaimer

   EN    FR    IT 

 










Legend :    VFR   Marginal VFR   IFR   Intensive IFR   Very Intensive IFR
Visi :
Ceiling :
>= 8 km
>= 3000ft
5 to 8 km
1000 to 3000 ft
1500m to 5 km
500 to 1000 ft
800 to 1500m
200 to 500 ft
< 800m
< 200 ft
Symbols :   Thunderstorms  Fog  Heavy snow  Heavy precipitations  Wind > 20 kt
SIGMETs :     Misc.  Thunderstorms  Icing  Turbulence  Mountain Waves  Volcanic Ashes







- Airport Elevation : 26 ft
- IATA code : GLA
- Download approach charts


EGPF - Glasgow

CURRENT METAR :
  • 240150Z AUTO 19007KT 9999 FEW037/// SCT045/// //////CB 05/03 Q1028

EXPIRED METARs :
  • 240120Z AUTO 24008KT 9999 FEW028/// BKN040/// BKN046/// //////CB 05/03 Q1029
  • 240050Z AUTO 19006KT 9999 FEW040/// //////CB 04/02 Q1029
  • 240020Z AUTO 24005KT 9999 FEW021/// SCT032/// //////TCU 04/03 Q1029
  • 232350Z AUTO 22010KT 9999 FEW040/// SCT048/// //////CB 04/03 Q1030

TAF TAF EGPF
Valid from the 24 at 00:00 until the 25 at 00:00 UTC


232258Z 2400/2424 23009KT 9999 SCT030
TEMPO 2400/2418 8000 -SHRA
PROB30
TEMPO 2403/2409 27020G30KT
PROB40
TEMPO 2409/2418 4000 SHRA BKN014
PROB40
TEMPO 2409/2416 27022G35KT
PROB30
TEMPO 2416/2424 30020G30KT
ATIS : +44 141 887 7449
No reported NOTAMs for that airfield.



MET'MAP, your aeronautical weather chart ! - Copyright ORBIFLY December 2007 - Disclaimer

ORBIFLY MET'MAP TEAM :

Programming & Development : Alexandra Zaïnal
Concept & Development : Baudouin d'Aumeries
Co-Development & Prog : Marc-Olivier Méhu
Technical & hardware support : Manuel Goepfert

Contact : metmap@orbifly.com




SOURCES & CREDITS :

   NOAA